sensor_id;sensor_type;location;lat;lon;timestamp;pressure;altitude;pressure_sealevel;temperature;humidity
61618;BME280;47518;51.776;9.370;2023-02-28T00:00:04;101728.41;;;0.67;71.78
61618;BME280;47518;51.776;9.370;2023-02-28T00:02:38;101725.00;;;0.80;72.01
61618;BME280;47518;51.776;9.370;2023-02-28T00:05:04;101717.78;;;0.65;73.02
61618;BME280;47518;51.776;9.370;2023-02-28T00:07:30;101723.53;;;0.75;72.67
61618;BME280;47518;51.776;9.370;2023-02-28T00:09:56;101735.09;;;0.41;73.86
61618;BME280;47518;51.776;9.370;2023-02-28T00:12:21;101733.50;;;0.54;72.38
61618;BME280;47518;51.776;9.370;2023-02-28T00:14:47;101719.09;;;0.56;74.16
61618;BME280;47518;51.776;9.370;2023-02-28T00:17:12;101732.56;;;0.55;72.60
61618;BME280;47518;51.776;9.370;2023-02-28T00:19:37;101719.53;;;0.49;73.59
61618;BME280;47518;51.776;9.370;2023-02-28T00:22:03;101719.72;;;0.44;73.05
61618;BME280;47518;51.776;9.370;2023-02-28T00:24:28;101726.91;;;0.44;73.93
61618;BME280;47518;51.776;9.370;2023-02-28T00:26:53;101723.69;;;0.54;73.56
61618;BME280;47518;51.776;9.370;2023-02-28T00:29:19;101723.47;;;0.59;73.67
61618;BME280;47518;51.776;9.370;2023-02-28T00:31:44;101716.06;;;0.47;73.77
61618;BME280;47518;51.776;9.370;2023-02-28T00:34:09;101726.44;;;0.36;73.99
61618;BME280;47518;51.776;9.370;2023-02-28T00:36:35;101720.69;;;0.26;73.58
61618;BME280;47518;51.776;9.370;2023-02-28T00:39:00;101719.31;;;0.35;73.36
61618;BME280;47518;51.776;9.370;2023-02-28T00:41:25;101723.19;;;0.12;74.44
61618;BME280;47518;51.776;9.370;2023-02-28T00:43:50;101724.66;;;0.17;74.56
61618;BME280;47518;51.776;9.370;2023-02-28T00:46:16;101719.69;;;0.10;73.88
61618;BME280;47518;51.776;9.370;2023-02-28T00:48:41;101720.69;;;0.26;73.94
61618;BME280;47518;51.776;9.370;2023-02-28T00:51:06;101731.81;;;0.17;75.36
61618;BME280;47518;51.776;9.370;2023-02-28T00:53:32;101725.59;;;0.16;74.55
61618;BME280;47518;51.776;9.370;2023-02-28T00:55:57;101727.31;;;0.36;74.34
61618;BME280;47518;51.776;9.370;2023-02-28T00:58:23;101735.00;;;0.42;74.37
61618;BME280;47518;51.776;9.370;2023-02-28T01:00:50;101726.03;;;0.43;74.61
61618;BME280;47518;51.776;9.370;2023-02-28T01:03:17;101736.81;;;0.42;74.72
61618;BME280;47518;51.776;9.370;2023-02-28T01:05:43;101735.66;;;0.47;74.85
61618;BME280;47518;51.776;9.370;2023-02-28T01:08:08;101730.75;;;0.55;75.22
61618;BME280;47518;51.776;9.370;2023-02-28T01:10:34;101737.25;;;0.33;75.24
61618;BME280;47518;51.776;9.370;2023-02-28T01:13:01;101729.81;;;0.03;73.98
61618;BME280;47518;51.776;9.370;2023-02-28T01:15:27;101735.34;;;-0.19;74.96
61618;BME280;47518;51.776;9.370;2023-02-28T01:17:52;101731.84;;;-0.02;75.71
61618;BME280;47518;51.776;9.370;2023-02-28T01:20:18;101726.22;;;0.21;75.26
61618;BME280;47518;51.776;9.370;2023-02-28T01:22:43;101725.03;;;0.10;74.12
61618;BME280;47518;51.776;9.370;2023-02-28T01:25:08;101722.94;;;0.16;75.26
61618;BME280;47518;51.776;9.370;2023-02-28T01:27:34;101721.75;;;0.22;74.32
61618;BME280;47518;51.776;9.370;2023-02-28T01:29:59;101720.50;;;0.29;74.13
61618;BME280;47518;51.776;9.370;2023-02-28T01:32:24;101720.81;;;0.23;75.06
61618;BME280;47518;51.776;9.370;2023-02-28T01:34:50;101715.63;;;0.20;74.21
61618;BME280;47518;51.776;9.370;2023-02-28T01:37:15;101725.50;;;0.01;73.96
61618;BME280;47518;51.776;9.370;2023-02-28T01:39:40;101725.59;;;-0.20;74.55
61618;BME280;47518;51.776;9.370;2023-02-28T01:42:09;101716.31;;;-0.13;74.21
61618;BME280;47518;51.776;9.370;2023-02-28T01:58:02;101710.19;;;-0.15;75.02
61618;BME280;47518;51.776;9.370;2023-02-28T02:00:30;101704.22;;;-0.20;76.02
61618;BME280;47518;51.776;9.370;2023-02-28T02:02:59;101711.41;;;-0.03;76.08
61618;BME280;47518;51.776;9.370;2023-02-28T02:05:28;101706.78;;;0.01;75.61
61618;BME280;47518;51.776;9.370;2023-02-28T02:07:58;101709.41;;;0.19;74.69
61618;BME280;47518;51.776;9.370;2023-02-28T02:10:36;101711.38;;;0.16;76.05
61618;BME280;47518;51.776;9.370;2023-02-28T02:38:52;101678.50;;;-0.22;76.51
61618;BME280;47518;51.776;9.370;2023-02-28T02:41:26;101682.03;;;-0.22;76.29
61618;BME280;47518;51.776;9.370;2023-02-28T02:43:56;101677.28;;;-0.34;77.74
61618;BME280;47518;51.776;9.370;2023-02-28T02:46:29;101677.91;;;-0.29;76.68
61618;BME280;47518;51.776;9.370;2023-02-28T02:49:00;101675.97;;;-0.25;76.01
61618;BME280;47518;51.776;9.370;2023-02-28T02:51:30;101675.00;;;-0.24;75.91
61618;BME280;47518;51.776;9.370;2023-02-28T02:54:02;101670.06;;;-0.32;75.84
61618;BME280;47518;51.776;9.370;2023-02-28T02:56:31;101673.41;;;-0.46;77.01
61618;BME280;47518;51.776;9.370;2023-02-28T02:59:03;101675.06;;;-0.43;76.49
61618;BME280;47518;51.776;9.370;2023-02-28T03:01:31;101665.50;;;-0.49;77.30
61618;BME280;47518;51.776;9.370;2023-02-28T03:03:59;101672.81;;;-0.52;78.14
61618;BME280;47518;51.776;9.370;2023-02-28T03:06:26;101677.13;;;-0.50;77.55
61618;BME280;47518;51.776;9.370;2023-02-28T03:08:52;101677.94;;;-0.67;76.81
61618;BME280;47518;51.776;9.370;2023-02-28T03:11:18;101679.72;;;-0.48;77.63
61618;BME280;47518;51.776;9.370;2023-02-28T03:27:06;101693.38;;;-0.54;77.26
61618;BME280;47518;51.776;9.370;2023-02-28T03:29:35;101687.53;;;-0.44;76.92
61618;BME280;47518;51.776;9.370;2023-02-28T03:32:09;101687.81;;;-0.50;77.11
61618;BME280;47518;51.776;9.370;2023-02-28T03:34:46;101692.09;;;-0.46;77.12
61618;BME280;47518;51.776;9.370;2023-02-28T03:37:17;101683.91;;;-0.62;76.78
61618;BME280;47518;51.776;9.370;2023-02-28T03:39:47;101692.25;;;-0.68;77.17
61618;BME280;47518;51.776;9.370;2023-02-28T03:42:18;101691.66;;;-0.55;76.74
61618;BME280;47518;51.776;9.370;2023-02-28T03:44:48;101694.78;;;-0.46;76.44
61618;BME280;47518;51.776;9.370;2023-02-28T03:47:22;101693.69;;;-0.42;76.26
61618;BME280;47518;51.776;9.370;2023-02-28T03:49:54;101696.13;;;-0.75;77.42
61618;BME280;47518;51.776;9.370;2023-02-28T03:52:24;101691.66;;;-0.55;76.91
61618;BME280;47518;51.776;9.370;2023-02-28T03:54:53;101696.22;;;-0.57;76.54
61618;BME280;47518;51.776;9.370;2023-02-28T03:57:41;101696.63;;;-0.67;76.84
61618;BME280;47518;51.776;9.370;2023-02-28T04:00:14;101698.16;;;-0.42;76.93
61618;BME280;47518;51.776;9.370;2023-02-28T04:02:43;101703.78;;;-0.48;75.64
61618;BME280;47518;51.776;9.370;2023-02-28T04:05:09;101697.19;;;-0.79;77.45
61618;BME280;47518;51.776;9.370;2023-02-28T04:07:35;101692.19;;;-0.86;77.45
61618;BME280;47518;51.776;9.370;2023-02-28T04:10:00;101688.09;;;-0.75;76.99
61618;BME280;47518;51.776;9.370;2023-02-28T04:12:26;101693.38;;;-0.92;77.16
61618;BME280;47518;51.776;9.370;2023-02-28T04:14:51;101697.53;;;-1.26;79.26
61618;BME280;47518;51.776;9.370;2023-02-28T04:17:17;101693.06;;;-1.45;80.41
61618;BME280;47518;51.776;9.370;2023-02-28T04:19:43;101683.47;;;-1.50;79.71
61618;BME280;47518;51.776;9.370;2023-02-28T04:22:09;101696.06;;;-1.33;79.44
61618;BME280;47518;51.776;9.370;2023-02-28T04:24:35;101691.97;;;-1.21;79.08
61618;BME280;47518;51.776;9.370;2023-02-28T04:27:00;101693.56;;;-1.17;79.63
61618;BME280;47518;51.776;9.370;2023-02-28T04:29:28;101703.66;;;-1.03;79.96
61618;BME280;47518;51.776;9.370;2023-02-28T04:31:55;101705.44;;;-0.65;78.53
61618;BME280;47518;51.776;9.370;2023-02-28T04:34:23;101707.59;;;-0.73;77.52
61618;BME280;47518;51.776;9.370;2023-02-28T04:36:50;101706.75;;;-0.54;77.80
61618;BME280;47518;51.776;9.370;2023-02-28T04:39:16;101706.38;;;-0.47;75.72
61618;BME280;47518;51.776;9.370;2023-02-28T04:41:43;101709.13;;;-0.67;76.69
61618;BME280;47518;51.776;9.370;2023-02-28T04:44:09;101708.84;;;-0.42;76.45
61618;BME280;47518;51.776;9.370;2023-02-28T04:46:34;101708.19;;;-0.28;74.82
61618;BME280;47518;51.776;9.370;2023-02-28T04:49:00;101712.16;;;-0.37;74.69
61618;BME280;47518;51.776;9.370;2023-02-28T04:51:25;101714.81;;;-0.37;76.07
61618;BME280;47518;51.776;9.370;2023-02-28T04:53:50;101704.94;;;-0.54;76.06
61618;BME280;47518;51.776;9.370;2023-02-28T04:56:17;101708.41;;;-0.52;75.87
61618;BME280;47518;51.776;9.370;2023-02-28T04:58:43;101707.31;;;-0.67;76.98
61618;BME280;47518;51.776;9.370;2023-02-28T05:01:29;101711.50;;;-0.80;76.55
61618;BME280;47518;51.776;9.370;2023-02-28T05:03:57;101712.66;;;-0.67;76.73
61618;BME280;47518;51.776;9.370;2023-02-28T05:06:24;101713.31;;;-0.62;76.05
61618;BME280;47518;51.776;9.370;2023-02-28T05:08:51;101705.72;;;-0.52;76.01
61618;BME280;47518;51.776;9.370;2023-02-28T05:11:20;101712.16;;;-0.37;76.03
61618;BME280;47518;51.776;9.370;2023-02-28T05:13:46;101704.28;;;-0.40;76.00
61618;BME280;47518;51.776;9.370;2023-02-28T05:16:12;101704.94;;;-0.54;76.68
61618;BME280;47518;51.776;9.370;2023-02-28T05:18:37;101711.78;;;-0.48;75.13
61618;BME280;47518;51.776;9.370;2023-02-28T05:21:03;101708.56;;;-0.55;75.52
61618;BME280;47518;51.776;9.370;2023-02-28T05:23:28;101702.47;;;-0.59;75.86
61618;BME280;47518;51.776;9.370;2023-02-28T05:25:54;101706.59;;;-0.51;76.34
61618;BME280;47518;51.776;9.370;2023-02-28T05:28:20;101715.03;;;-0.61;75.94
61618;BME280;47518;51.776;9.370;2023-02-28T05:30:46;101717.69;;;-0.61;76.93
61618;BME280;47518;51.776;9.370;2023-02-28T05:33:12;101712.78;;;-0.70;76.32
61618;BME280;47518;51.776;9.370;2023-02-28T05:35:39;101718.41;;;-0.76;77.37
61618;BME280;47518;51.776;9.370;2023-02-28T05:38:04;101716.59;;;-0.75;77.29
61618;BME280;47518;51.776;9.370;2023-02-28T05:40:30;101717.50;;;-0.95;77.61
61618;BME280;47518;51.776;9.370;2023-02-28T05:42:55;101723.00;;;-1.19;76.59
61618;BME280;47518;51.776;9.370;2023-02-28T05:45:20;101722.09;;;-1.38;77.08
61618;BME280;47518;51.776;9.370;2023-02-28T05:47:45;101723.91;;;-1.40;77.83
61618;BME280;47518;51.776;9.370;2023-02-28T05:50:11;101723.19;;;-1.43;76.42
61618;BME280;47518;51.776;9.370;2023-02-28T05:52:36;101717.00;;;-1.44;76.50
61618;BME280;47518;51.776;9.370;2023-02-28T05:55:02;101727.34;;;-1.36;75.81
61618;BME280;47518;51.776;9.370;2023-02-28T05:57:28;101723.00;;;-1.39;76.09
61618;BME280;47518;51.776;9.370;2023-02-28T05:59:53;101716.78;;;-1.39;77.68
61618;BME280;47518;51.776;9.370;2023-02-28T06:02:19;101729.16;;;-1.37;77.21
61618;BME280;47518;51.776;9.370;2023-02-28T06:04:44;101729.53;;;-1.46;77.45
61618;BME280;47518;51.776;9.370;2023-02-28T06:07:10;101726.59;;;-1.40;76.75
61618;BME280;47518;51.776;9.370;2023-02-28T06:09:36;101729.09;;;-1.35;77.83
61618;BME280;47518;51.776;9.370;2023-02-28T06:35:29;101759.75;;;-1.67;78.67
61618;BME280;47518;51.776;9.370;2023-02-28T06:37:55;101754.22;;;-1.63;78.33
61618;BME280;47518;51.776;9.370;2023-02-28T06:40:20;101752.91;;;-1.73;77.37
61618;BME280;47518;51.776;9.370;2023-02-28T06:42:45;101759.19;;;-1.54;75.93
61618;BME280;47518;51.776;9.370;2023-02-28T06:45:11;101763.44;;;-1.70;76.44
61618;BME280;47518;51.776;9.370;2023-02-28T06:47:39;101754.75;;;-1.75;77.19
61618;BME280;47518;51.776;9.370;2023-02-28T06:50:05;101757.31;;;-1.94;77.63
61618;BME280;47518;51.776;9.370;2023-02-28T06:52:31;101759.09;;;-1.94;77.56
61618;BME280;47518;51.776;9.370;2023-02-28T06:54:56;101759.78;;;-1.89;77.90
61618;BME280;47518;51.776;9.370;2023-02-28T06:57:27;101763.66;;;-1.76;77.72
61618;BME280;47518;51.776;9.370;2023-02-28T06:59:55;101765.09;;;-1.67;75.89
61618;BME280;47518;51.776;9.370;2023-02-28T07:02:21;101759.03;;;-1.93;76.88
61618;BME280;47518;51.776;9.370;2023-02-28T07:04:46;101768.25;;;-2.01;78.56
61618;BME280;47518;51.776;9.370;2023-02-28T07:07:11;101760.84;;;-1.71;77.46
61618;BME280;47518;51.776;9.370;2023-02-28T07:09:37;101761.13;;;-1.79;77.58
61618;BME280;47518;51.776;9.370;2023-02-28T07:12:02;101776.56;;;-1.87;79.17
61618;BME280;47518;51.776;9.370;2023-02-28T07:14:27;101777.63;;;-1.69;79.03
61618;BME280;47518;51.776;9.370;2023-02-28T07:16:53;101782.63;;;-1.20;76.33
61618;BME280;47518;51.776;9.370;2023-02-28T07:19:18;101777.03;;;-0.93;75.63
61618;BME280;47518;51.776;9.370;2023-02-28T07:21:43;101781.56;;;-0.75;75.82
61618;BME280;47518;51.776;9.370;2023-02-28T07:24:09;101779.50;;;-0.68;74.45
61618;BME280;47518;51.776;9.370;2023-02-28T07:26:35;101785.25;;;-0.59;73.85
61618;BME280;47518;51.776;9.370;2023-02-28T07:29:00;101778.69;;;-0.31;72.43
61618;BME280;47518;51.776;9.370;2023-02-28T07:31:27;101774.84;;;-0.25;73.53
61618;BME280;47518;51.776;9.370;2023-02-28T07:33:52;101775.00;;;-0.10;72.36
61618;BME280;47518;51.776;9.370;2023-02-28T07:36:19;101787.50;;;-0.10;71.76
61618;BME280;47518;51.776;9.370;2023-02-28T07:38:46;101777.94;;;-0.53;72.09
61618;BME280;47518;51.776;9.370;2023-02-28T07:41:16;101778.25;;;-0.80;74.39
61618;BME280;47518;51.776;9.370;2023-02-28T07:43:42;101782.44;;;-0.74;73.52
61618;BME280;47518;51.776;9.370;2023-02-28T07:46:10;101784.13;;;-0.53;73.28
61618;BME280;47518;51.776;9.370;2023-02-28T07:48:36;101781.50;;;-0.15;72.01
61618;BME280;47518;51.776;9.370;2023-02-28T07:51:02;101784.81;;;0.09;72.10
61618;BME280;47518;51.776;9.370;2023-02-28T07:53:28;101778.91;;;0.02;71.47
61618;BME280;47518;51.776;9.370;2023-02-28T07:55:55;101785.31;;;0.17;69.92
61618;BME280;47518;51.776;9.370;2023-02-28T07:58:20;101786.25;;;0.16;71.91
61618;BME280;47518;51.776;9.370;2023-02-28T08:00:46;101789.28;;;0.44;71.17
61618;BME280;47518;51.776;9.370;2023-02-28T08:03:12;101782.94;;;0.47;70.03
61618;BME280;47518;51.776;9.370;2023-02-28T08:05:39;101783.81;;;0.47;71.17
61618;BME280;47518;51.776;9.370;2023-02-28T08:08:05;101771.50;;;0.26;71.04
61618;BME280;47518;51.776;9.370;2023-02-28T08:10:31;101775.50;;;0.35;72.18
61618;BME280;47518;51.776;9.370;2023-02-28T08:12:56;101777.53;;;1.00;68.70
61618;BME280;47518;51.776;9.370;2023-02-28T08:15:21;101772.97;;;1.02;67.20
61618;BME280;47518;51.776;9.370;2023-02-28T08:17:46;101774.59;;;1.22;66.10
61618;BME280;47518;51.776;9.370;2023-02-28T08:20:12;101772.84;;;1.87;62.50
61618;BME280;47518;51.776;9.370;2023-02-28T08:22:38;101768.16;;;1.91;61.18
61618;BME280;47518;51.776;9.370;2023-02-28T08:25:04;101778.03;;;2.38;60.18
61618;BME280;47518;51.776;9.370;2023-02-28T08:27:29;101782.44;;;2.39;59.40
61618;BME280;47518;51.776;9.370;2023-02-28T08:29:55;101783.69;;;2.63;57.86
61618;BME280;47518;51.776;9.370;2023-02-28T08:32:20;101779.19;;;2.63;58.56
61618;BME280;47518;51.776;9.370;2023-02-28T08:34:46;101780.81;;;2.66;59.54
61618;BME280;47518;51.776;9.370;2023-02-28T08:37:12;101775.03;;;2.88;58.28
61618;BME280;47518;51.776;9.370;2023-02-28T08:39:37;101773.00;;;3.07;57.46
61618;BME280;47518;51.776;9.370;2023-02-28T08:42:03;101778.06;;;2.98;56.76
61618;BME280;47518;51.776;9.370;2023-02-28T08:44:28;101763.09;;;3.08;57.01
61618;BME280;47518;51.776;9.370;2023-02-28T08:46:54;101765.84;;;3.36;57.09
61618;BME280;47518;51.776;9.370;2023-02-28T08:49:19;101769.97;;;3.56;55.91
61618;BME280;47518;51.776;9.370;2023-02-28T08:51:45;101768.53;;;3.50;54.73
61618;BME280;47518;51.776;9.370;2023-02-28T08:54:10;101769.66;;;3.89;54.36
61618;BME280;47518;51.776;9.370;2023-02-28T08:56:41;101771.97;;;3.81;53.79
61618;BME280;47518;51.776;9.370;2023-02-28T08:59:08;101766.13;;;4.30;52.07
61618;BME280;47518;51.776;9.370;2023-02-28T09:01:34;101753.19;;;4.62;52.42
61618;BME280;47518;51.776;9.370;2023-02-28T09:03:59;101768.16;;;4.93;52.51
61618;BME280;47518;51.776;9.370;2023-02-28T09:06:26;101762.03;;;4.37;50.28
61618;BME280;47518;51.776;9.370;2023-02-28T09:08:52;101768.56;;;4.20;50.68
61618;BME280;47518;51.776;9.370;2023-02-28T09:11:18;101769.19;;;3.97;51.17
61618;BME280;47518;51.776;9.370;2023-02-28T09:13:44;101766.22;;;3.87;52.13
61618;BME280;47518;51.776;9.370;2023-02-28T09:16:12;101763.22;;;3.77;52.56
61618;BME280;47518;51.776;9.370;2023-02-28T09:18:38;101768.72;;;3.76;53.22
61618;BME280;47518;51.776;9.370;2023-02-28T09:21:08;101764.59;;;3.56;53.15
61618;BME280;47518;51.776;9.370;2023-02-28T09:23:34;101760.25;;;3.96;52.70
61618;BME280;47518;51.776;9.370;2023-02-28T09:25:59;101762.25;;;4.07;51.58
61618;BME280;47518;51.776;9.370;2023-02-28T09:28:24;101759.25;;;4.12;51.51
61618;BME280;47518;51.776;9.370;2023-02-28T09:30:52;101760.41;;;3.93;51.61
61618;BME280;47518;51.776;9.370;2023-02-28T09:33:19;101766.75;;;4.06;51.89
61618;BME280;47518;51.776;9.370;2023-02-28T09:35:47;101768.03;;;4.28;51.69
61618;BME280;47518;51.776;9.370;2023-02-28T09:38:12;101767.84;;;4.31;51.43
61618;BME280;47518;51.776;9.370;2023-02-28T09:40:47;101770.53;;;4.31;51.93
61618;BME280;47518;51.776;9.370;2023-02-28T09:43:14;101771.91;;;4.24;52.09
61618;BME280;47518;51.776;9.370;2023-02-28T09:45:42;101771.63;;;4.28;52.71
61618;BME280;47518;51.776;9.370;2023-02-28T10:06:29;101758.66;;;4.75;52.53
61618;BME280;47518;51.776;9.370;2023-02-28T10:09:11;101760.19;;;5.04;51.92
61618;BME280;47518;51.776;9.370;2023-02-28T10:11:40;101753.19;;;5.14;50.21
61618;BME280;47518;51.776;9.370;2023-02-28T10:14:14;101753.75;;;5.45;49.85
61618;BME280;47518;51.776;9.370;2023-02-28T10:16:47;101751.25;;;5.42;49.56
61618;BME280;47518;51.776;9.370;2023-02-28T10:19:24;101758.34;;;5.55;49.40
61618;BME280;47518;51.776;9.370;2023-02-28T10:22:00;101753.66;;;5.34;49.97
61618;BME280;47518;51.776;9.370;2023-02-28T10:24:34;101753.66;;;5.34;50.19
61618;BME280;47518;51.776;9.370;2023-02-28T10:27:13;101754.91;;;5.53;50.85
61618;BME280;47518;51.776;9.370;2023-02-28T10:29:44;101740.38;;;6.42;49.11
61618;BME280;47518;51.776;9.370;2023-02-28T10:32:14;101750.66;;;7.42;46.71
61618;BME280;47518;51.776;9.370;2023-02-28T10:34:40;101736.41;;;8.39;44.33
61618;BME280;47518;51.776;9.370;2023-02-28T10:37:06;101739.41;;;9.52;42.05
61618;BME280;47518;51.776;9.370;2023-02-28T10:39:43;101741.28;;;10.22;38.83
61618;BME280;47518;51.776;9.370;2023-02-28T10:42:29;101732.69;;;10.27;36.64
61618;BME280;47518;51.776;9.370;2023-02-28T10:45:17;101737.69;;;8.88;40.17
61618;BME280;47518;51.776;9.370;2023-02-28T10:47:58;101738.97;;;9.05;39.88
61618;BME280;47518;51.776;9.370;2023-02-28T10:56:17;101724.97;;;12.48;31.11
61618;BME280;47518;51.776;9.370;2023-02-28T11:01:50;101721.28;;;12.21;33.59
61618;BME280;47518;51.776;9.370;2023-02-28T11:04:31;101725.53;;;12.06;35.34
61618;BME280;47518;51.776;9.370;2023-02-28T11:07:00;101719.03;;;12.35;35.93
61618;BME280;47518;51.776;9.370;2023-02-28T11:09:30;101726.03;;;13.52;29.84
61618;BME280;47518;51.776;9.370;2023-02-28T11:11:57;101720.06;;;12.34;28.76
61618;BME280;47518;51.776;9.370;2023-02-28T11:14:27;101718.47;;;13.72;27.88
61618;BME280;47518;51.776;9.370;2023-02-28T11:16:54;101715.34;;;12.08;29.45
61618;BME280;47518;51.776;9.370;2023-02-28T11:19:26;101714.09;;;10.99;30.50
61618;BME280;47518;51.776;9.370;2023-02-28T11:21:56;101720.19;;;11.87;29.42
61618;BME280;47518;51.776;9.370;2023-02-28T11:24:41;101722.66;;;12.08;28.63
61618;BME280;47518;51.776;9.370;2023-02-28T11:27:25;101709.63;;;13.86;26.88
61618;BME280;47518;51.776;9.370;2023-02-28T11:29:51;101713.31;;;14.11;26.69
61618;BME280;47518;51.776;9.370;2023-02-28T11:32:20;101710.38;;;13.62;26.01
61618;BME280;47518;51.776;9.370;2023-02-28T11:35:01;101704.97;;;13.19;26.99
61618;BME280;47518;51.776;9.370;2023-02-28T11:37:28;101701.00;;;14.66;25.08
61618;BME280;47518;51.776;9.370;2023-02-28T11:39:53;101702.50;;;13.59;26.92
61618;BME280;47518;51.776;9.370;2023-02-28T11:42:43;101698.72;;;13.26;28.27
61618;BME280;47518;51.776;9.370;2023-02-28T11:51:01;101701.66;;;11.53;32.92
61618;BME280;47518;51.776;9.370;2023-02-28T12:30:23;101666.72;;;11.02;32.32
61618;BME280;47518;51.776;9.370;2023-02-28T12:33:06;101655.59;;;11.23;31.89
61618;BME280;47518;51.776;9.370;2023-02-28T12:35:48;101655.66;;;11.78;30.46
61618;BME280;47518;51.776;9.370;2023-02-28T12:38:34;101648.94;;;11.45;31.17
61618;BME280;47518;51.776;9.370;2023-02-28T12:41:05;101652.94;;;11.78;31.51
61618;BME280;47518;51.776;9.370;2023-02-28T12:43:40;101642.72;;;12.61;28.70
61618;BME280;47518;51.776;9.370;2023-02-28T12:46:29;101644.81;;;11.68;30.33
61618;BME280;47518;51.776;9.370;2023-02-28T12:48:58;101633.75;;;13.12;28.78
61618;BME280;47518;51.776;9.370;2023-02-28T12:51:26;101638.81;;;13.25;28.45
61618;BME280;47518;51.776;9.370;2023-02-28T12:54:11;101637.91;;;12.01;29.86
61618;BME280;47518;51.776;9.370;2023-02-28T12:56:47;101642.09;;;10.94;31.51
61618;BME280;47518;51.776;9.370;2023-02-28T12:59:25;101646.16;;;11.27;31.39
61618;BME280;47518;51.776;9.370;2023-02-28T13:02:18;101646.28;;;10.59;32.66
61618;BME280;47518;51.776;9.370;2023-02-28T13:05:00;101625.78;;;10.65;32.52
61618;BME280;47518;51.776;9.370;2023-02-28T13:10:45;101627.56;;;11.50;30.38
61618;BME280;47518;51.776;9.370;2023-02-28T13:13:17;101626.22;;;10.12;32.27
61618;BME280;47518;51.776;9.370;2023-02-28T13:18:42;101633.66;;;10.00;32.91
61618;BME280;47518;51.776;9.370;2023-02-28T13:21:21;101634.78;;;10.85;31.54
61618;BME280;47518;51.776;9.370;2023-02-28T13:24:04;101628.03;;;10.98;31.38
61618;BME280;47518;51.776;9.370;2023-02-28T13:39:55;101621.81;;;10.20;31.36
61618;BME280;47518;51.776;9.370;2023-02-28T13:47:59;101597.47;;;10.09;31.92
61618;BME280;47518;51.776;9.370;2023-02-28T14:11:50;101581.94;;;9.52;31.93
61618;BME280;47518;51.776;9.370;2023-02-28T14:14:53;101587.78;;;9.47;32.95
61618;BME280;47518;51.776;9.370;2023-02-28T14:17:18;101585.59;;;9.01;33.00
61618;BME280;47518;51.776;9.370;2023-02-28T14:19:45;101573.00;;;8.28;33.47
61618;BME280;47518;51.776;9.370;2023-02-28T14:22:53;101577.44;;;7.97;34.24
61618;BME280;47518;51.776;9.370;2023-02-28T14:41:26;101574.53;;;7.88;35.13
61618;BME280;47518;51.776;9.370;2023-02-28T14:43:56;101571.47;;;8.46;35.30
61618;BME280;47518;51.776;9.370;2023-02-28T14:46:24;101572.56;;;8.64;33.95
61618;BME280;47518;51.776;9.370;2023-02-28T14:48:51;101572.84;;;8.61;33.91
61618;BME280;47518;51.776;9.370;2023-02-28T14:51:20;101579.63;;;8.56;34.40
61618;BME280;47518;51.776;9.370;2023-02-28T14:53:56;101575.41;;;8.10;34.52
61618;BME280;47518;51.776;9.370;2023-02-28T14:56:38;101578.09;;;7.89;35.37
61618;BME280;47518;51.776;9.370;2023-02-28T14:59:32;101586.22;;;7.89;36.57
61618;BME280;47518;51.776;9.370;2023-02-28T15:02:21;101590.72;;;7.56;35.28
61618;BME280;47518;51.776;9.370;2023-02-28T15:04:56;101593.72;;;7.31;36.81
61618;BME280;47518;51.776;9.370;2023-02-28T15:07:25;101599.00;;;6.99;37.12
61618;BME280;47518;51.776;9.370;2023-02-28T15:10:19;101595.69;;;6.84;38.10
61618;BME280;47518;51.776;9.370;2023-02-28T15:12:54;101594.34;;;7.01;38.06
61618;BME280;47518;51.776;9.370;2023-02-28T15:15:25;101585.00;;;7.05;37.17
61618;BME280;47518;51.776;9.370;2023-02-28T15:17:56;101588.31;;;6.97;37.41
61618;BME280;47518;51.776;9.370;2023-02-28T15:20:23;101594.94;;;6.93;38.07
61618;BME280;47518;51.776;9.370;2023-02-28T15:22:51;101602.06;;;7.06;39.33
61618;BME280;47518;51.776;9.370;2023-02-28T15:25:21;101597.16;;;6.99;38.59
61618;BME280;47518;51.776;9.370;2023-02-28T15:27:50;101604.75;;;6.61;39.14
61618;BME280;47518;51.776;9.370;2023-02-28T15:30:21;101599.25;;;6.73;38.33
61618;BME280;47518;51.776;9.370;2023-02-28T15:33:03;101590.28;;;6.84;39.04
61618;BME280;47518;51.776;9.370;2023-02-28T15:35:32;101589.03;;;6.77;37.94
61618;BME280;47518;51.776;9.370;2023-02-28T15:40:43;101585.66;;;6.40;39.55
61618;BME280;47518;51.776;9.370;2023-02-28T16:04:34;101597.44;;;6.04;41.07
61618;BME280;47518;51.776;9.370;2023-02-28T16:07:04;101591.38;;;6.00;40.65
61618;BME280;47518;51.776;9.370;2023-02-28T16:09:30;101600.47;;;5.99;41.58
61618;BME280;47518;51.776;9.370;2023-02-28T16:11:59;101604.03;;;6.00;41.98
61618;BME280;47518;51.776;9.370;2023-02-28T16:14:28;101607.44;;;6.14;41.86
61618;BME280;47518;51.776;9.370;2023-02-28T16:17:04;101607.19;;;5.94;42.37
61618;BME280;47518;51.776;9.370;2023-02-28T16:19:30;101607.81;;;5.97;41.73
61618;BME280;47518;51.776;9.370;2023-02-28T16:21:56;101606.13;;;5.83;40.96
61618;BME280;47518;51.776;9.370;2023-02-28T16:24:22;101604.41;;;5.82;41.57
61618;BME280;47518;51.776;9.370;2023-02-28T16:26:48;101608.06;;;5.57;43.79
61618;BME280;47518;51.776;9.370;2023-02-28T16:29:24;101618.03;;;5.32;44.25
61618;BME280;47518;51.776;9.370;2023-02-28T16:31:51;101617.44;;;5.15;44.68
61618;BME280;47518;51.776;9.370;2023-02-28T16:34:18;101609.47;;;5.01;45.39
61618;BME280;47518;51.776;9.370;2023-02-28T16:36:46;101616.69;;;5.01;45.69
61618;BME280;47518;51.776;9.370;2023-02-28T16:39:12;101613.34;;;4.97;46.55
61618;BME280;47518;51.776;9.370;2023-02-28T16:41:39;101616.25;;;5.07;45.86
61618;BME280;47518;51.776;9.370;2023-02-28T16:44:10;101614.63;;;5.17;48.09
61618;BME280;47518;51.776;9.370;2023-02-28T16:46:37;101617.84;;;5.09;49.90
61618;BME280;47518;51.776;9.370;2023-02-28T16:49:03;101613.16;;;5.00;50.67
61618;BME280;47518;51.776;9.370;2023-02-28T16:51:28;101617.47;;;4.90;51.32
61618;BME280;47518;51.776;9.370;2023-02-28T16:53:54;101616.25;;;4.68;51.05
61618;BME280;47518;51.776;9.370;2023-02-28T16:56:21;101616.50;;;4.65;50.63